»·PEaware :: N906AM KAJO-KVCV

N906AM :: KAJO-KVCV

FLIGHT INFORMATION

Flight Status: Arrived
Operator: Privately registered:
United States
More flights under this callsign
Pilot: Luiz A. (31895)
Aircraft: SOCATA TBM-900
(TBM9)
More flights by this aircraft type
Origin: KAJO Corona Mun
United States
Destination: KVCV Socal Logistics
United States
More flights between these airports :: More routes between these airports
Route: PDZ V442 APLES
File this flight plan on PilotEdge
Remarks: I-11 RATING REQUESTING
Altitude:
(Current/Filed)
11,000ft
Speed:
(Current/Filed)
250kts
Departed: 17-Nov-20 09:19 AM
Arrived: 17-Nov-20 10:05 AM
Distance/Time
Traveled:
43nm/0:46
Distance/Time
To Go:
Arrived

Flight Plot

Page will automatically refresh every two minutes.


Map Options




Map Legend


Flown Route
Filed Route
Departure Airport
Arrival Airport
Navaid (VOR, NDB)
Fix

Horizontal Profiles

Position Reports

Time Latitude Longitude Heading Altitude Ground
Speed
17-Nov-20 09:03 33.896327 -117.598778 101 534ft 0kts
17-Nov-20 09:04 33.896327 -117.598778 101 534ft 0kts
17-Nov-20 09:05 33.896327 -117.598778 101 534ft 0kts
17-Nov-20 09:06 33.896327 -117.598778 101 534ft 0kts
17-Nov-20 09:07 33.896327 -117.598778 101 534ft 0kts
17-Nov-20 09:08 33.896327 -117.598778 101 534ft 0kts
17-Nov-20 09:09 33.896327 -117.598778 101 534ft 0kts
17-Nov-20 09:10 33.896327 -117.598778 101 534ft 0kts
17-Nov-20 09:11 33.897090 -117.598435 24 534ft 3kts
17-Nov-20 09:12 33.897262 -117.602479 268 527ft 24kts
17-Nov-20 09:13 33.897198 -117.607282 268 518ft 0kts
17-Nov-20 09:14 33.897198 -117.607282 268 518ft 0kts
17-Nov-20 09:15 33.897198 -117.607282 268 518ft 0kts
17-Nov-20 09:16 33.897198 -117.607282 268 518ft 0kts
17-Nov-20 09:17 33.897628 -117.607181 89 518ft 0kts
17-Nov-20 09:18 33.898934 -117.585721 70 867ft 139kts
17-Nov-20 09:19 33.914971 -117.540757 70 1679ft 138kts
17-Nov-20 09:20 33.939145 -117.504686 42 2569ft 143kts
17-Nov-20 09:21 33.971515 -117.479766 328 3469ft 147kts
17-Nov-20 09:22 33.950691 -117.500400 189 4429ft 144kts
17-Nov-20 09:23 33.917040 -117.531616 221 4989ft 168kts
17-Nov-20 09:24 33.937018 -117.553185 36 5019ft 175kts
17-Nov-20 09:25 33.973068 -117.514629 45 4996ft 171kts
17-Nov-20 09:26 33.959992 -117.489355 209 5066ft 154kts
17-Nov-20 09:27 33.929104 -117.519259 221 5947ft 138kts
17-Nov-20 09:28 33.921716 -117.553347 343 6841ft 153kts
17-Nov-20 09:29 33.952121 -117.516517 61 7882ft 188kts
17-Nov-20 09:30 34.001711 -117.482902 22 8866ft 222kts
17-Nov-20 09:31 34.059437 -117.450809 27 9791ft 236kts
17-Nov-20 09:32 34.118175 -117.412237 29 10703ft 245kts
17-Nov-20 09:33 34.179984 -117.369647 29 10984ft 264kts
17-Nov-20 09:34 34.245784 -117.327362 26 11061ft 271kts
17-Nov-20 09:35 34.312081 -117.287344 26 10973ft 259kts
17-Nov-20 09:36 34.375831 -117.249002 26 10972ft 253kts
17-Nov-20 09:37 34.438723 -117.211308 26 10982ft 252kts
17-Nov-20 09:38 34.498213 -117.175581 26 10980ft 225kts
17-Nov-20 09:39 34.552973 -117.143557 16 10997ft 214kts
17-Nov-20 09:40 34.608872 -117.140813 349 10212ft 190kts
17-Nov-20 09:41 34.658234 -117.156128 339 9316ft 179kts
17-Nov-20 09:42 34.702013 -117.182485 322 8265ft 178kts
17-Nov-20 09:43 34.739613 -117.223320 313 6840ft 177kts
17-Nov-20 09:44 34.767350 -117.263573 301 6617ft 165kts
17-Nov-20 09:45 34.785872 -117.318151 281 6075ft 176kts
17-Nov-20 09:46 34.790752 -117.373272 268 5249ft 149kts
17-Nov-20 09:47 34.755867 -117.383456 178 4604ft 146kts
17-Nov-20 09:48 34.715957 -117.383417 181 4324ft 149kts
17-Nov-20 09:49 34.673951 -117.384054 178 3817ft 156kts
17-Nov-20 09:50 34.632486 -117.384795 182 3407ft 148kts
17-Nov-20 09:51 34.588930 -117.385356 180 4204ft 159kts
17-Nov-20 09:52 34.584456 -117.424522 310 5157ft 179kts
17-Nov-20 09:53 34.609511 -117.473346 281 5913ft 177kts
17-Nov-20 09:54 34.619730 -117.533949 279 6000ft 170kts
17-Nov-20 09:55 34.647861 -117.539483 78 5994ft 148kts
17-Nov-20 09:57 34.664126 -117.495085 10 5520ft 170kts
17-Nov-20 09:58 34.703131 -117.520252 290 4848ft 164kts
17-Nov-20 09:59 34.684125 -117.524585 93 4169ft 156kts
17-Nov-20 10:00 34.680378 -117.474939 116 3753ft 150kts
17-Nov-20 10:01 34.660101 -117.431400 119 3717ft 146kts
17-Nov-20 10:02 34.641004 -117.387803 117 3697ft 145kts
17-Nov-20 10:03 34.618822 -117.352386 166 3427ft 124kts
17-Nov-20 10:04 34.597354 -117.370341 225 2859ft 64kts
17-Nov-20 10:05 34.592721 -117.373028 218 2861ft 10kts
17-Nov-20 10:06 34.590766 -117.375270 224 2865ft 12kts
17-Nov-20 10:07 34.589141 -117.374461 145 2866ft 4kts
17-Nov-20 10:08 34.588824 -117.374398 225 2867ft 0kts

Navigation Log

Ident Type
Flight plan parsing failed, navigation log unavailable